sensor_id;sensor_type;location;lat;lon;timestamp;temperature;humidity
22966;DHT22;11649;48.090;9.754;2022-11-20T00:00:53;4.30;99.90
22966;DHT22;11649;48.090;9.754;2022-11-20T00:03:20;4.30;99.90
22966;DHT22;11649;48.090;9.754;2022-11-20T00:05:47;4.40;99.90
22966;DHT22;11649;48.090;9.754;2022-11-20T00:08:14;4.40;99.90
22966;DHT22;11649;48.090;9.754;2022-11-20T00:10:41;4.40;99.90
22966;DHT22;11649;48.090;9.754;2022-11-20T00:13:07;4.50;99.90
22966;DHT22;11649;48.090;9.754;2022-11-20T00:15:34;4.50;99.90
22966;DHT22;11649;48.090;9.754;2022-11-20T00:18:01;4.50;99.90
22966;DHT22;11649;48.090;9.754;2022-11-20T00:20:28;4.50;99.90
22966;DHT22;11649;48.090;9.754;2022-11-20T00:22:54;4.50;99.90
22966;DHT22;11649;48.090;9.754;2022-11-20T00:25:21;4.60;99.90
22966;DHT22;11649;48.090;9.754;2022-11-20T00:27:48;4.60;99.90
22966;DHT22;11649;48.090;9.754;2022-11-20T00:30:14;4.70;99.90
22966;DHT22;11649;48.090;9.754;2022-11-20T00:32:41;4.80;99.90
22966;DHT22;11649;48.090;9.754;2022-11-20T00:35:08;4.80;99.90
22966;DHT22;11649;48.090;9.754;2022-11-20T00:37:35;4.90;99.90
22966;DHT22;11649;48.090;9.754;2022-11-20T00:40:01;4.90;99.90
22966;DHT22;11649;48.090;9.754;2022-11-20T00:42:28;4.90;99.90
22966;DHT22;11649;48.090;9.754;2022-11-20T00:44:55;4.80;99.90
22966;DHT22;11649;48.090;9.754;2022-11-20T00:47:22;4.70;99.90
22966;DHT22;11649;48.090;9.754;2022-11-20T00:49:48;4.70;99.90
22966;DHT22;11649;48.090;9.754;2022-11-20T00:52:15;4.70;99.90
22966;DHT22;11649;48.090;9.754;2022-11-20T00:54:42;4.70;99.90
22966;DHT22;11649;48.090;9.754;2022-11-20T00:57:09;4.70;99.90
22966;DHT22;11649;48.090;9.754;2022-11-20T00:59:35;4.70;99.90
22966;DHT22;11649;48.090;9.754;2022-11-20T01:02:02;4.70;99.90
22966;DHT22;11649;48.090;9.754;2022-11-20T01:04:29;4.70;99.90
22966;DHT22;11649;48.090;9.754;2022-11-20T01:06:56;4.70;99.90
22966;DHT22;11649;48.090;9.754;2022-11-20T01:09:23;4.60;99.90
22966;DHT22;11649;48.090;9.754;2022-11-20T01:11:49;4.50;99.90
22966;DHT22;11649;48.090;9.754;2022-11-20T01:14:18;4.50;99.90
22966;DHT22;11649;48.090;9.754;2022-11-20T01:16:50;4.60;99.90
22966;DHT22;11649;48.090;9.754;2022-11-20T01:19:19;4.60;99.90
22966;DHT22;11649;48.090;9.754;2022-11-20T01:21:51;4.60;99.90
22966;DHT22;11649;48.090;9.754;2022-11-20T01:24:20;4.60;99.90
22966;DHT22;11649;48.090;9.754;2022-11-20T01:26:50;4.60;99.90
22966;DHT22;11649;48.090;9.754;2022-11-20T01:29:20;4.60;99.90
22966;DHT22;11649;48.090;9.754;2022-11-20T01:31:47;4.60;99.90
22966;DHT22;11649;48.090;9.754;2022-11-20T01:34:16;4.60;99.90
22966;DHT22;11649;48.090;9.754;2022-11-20T01:36:44;4.60;99.90
22966;DHT22;11649;48.090;9.754;2022-11-20T01:39:23;4.60;99.90
22966;DHT22;11649;48.090;9.754;2022-11-20T01:41:52;4.60;99.90
22966;DHT22;11649;48.090;9.754;2022-11-20T01:44:58;4.60;99.90
22966;DHT22;11649;48.090;9.754;2022-11-20T01:47:38;4.60;99.90
22966;DHT22;11649;48.090;9.754;2022-11-20T01:50:20;4.60;99.90
22966;DHT22;11649;48.090;9.754;2022-11-20T01:53:03;4.70;99.90
22966;DHT22;11649;48.090;9.754;2022-11-20T01:55:38;4.60;99.90
22966;DHT22;11649;48.090;9.754;2022-11-20T01:58:06;4.60;99.90
22966;DHT22;11649;48.090;9.754;2022-11-20T02:00:33;4.60;99.90
22966;DHT22;11649;48.090;9.754;2022-11-20T02:03:03;4.70;99.90
22966;DHT22;11649;48.090;9.754;2022-11-20T02:06:06;4.70;99.90
22966;DHT22;11649;48.090;9.754;2022-11-20T02:08:35;4.70;99.90
22966;DHT22;11649;48.090;9.754;2022-11-20T02:11:02;4.70;99.90
22966;DHT22;11649;48.090;9.754;2022-11-20T02:13:29;4.80;99.90
22966;DHT22;11649;48.090;9.754;2022-11-20T02:18:42;4.80;99.90
22966;DHT22;11649;48.090;9.754;2022-11-20T02:21:21;4.80;99.90
22966;DHT22;11649;48.090;9.754;2022-11-20T02:26:23;4.90;99.90
22966;DHT22;11649;48.090;9.754;2022-11-20T02:28:50;4.80;99.90
22966;DHT22;11649;48.090;9.754;2022-11-20T02:31:17;4.80;99.90
22966;DHT22;11649;48.090;9.754;2022-11-20T02:33:44;4.80;99.90
22966;DHT22;11649;48.090;9.754;2022-11-20T02:36:15;4.70;99.90
22966;DHT22;11649;48.090;9.754;2022-11-20T02:38:43;4.80;99.90
22966;DHT22;11649;48.090;9.754;2022-11-20T02:41:10;4.80;99.90
22966;DHT22;11649;48.090;9.754;2022-11-20T02:43:36;4.80;99.90
22966;DHT22;11649;48.090;9.754;2022-11-20T02:46:07;4.80;99.90
22966;DHT22;11649;48.090;9.754;2022-11-20T02:48:34;4.80;99.90
22966;DHT22;11649;48.090;9.754;2022-11-20T02:51:00;4.90;99.90
22966;DHT22;11649;48.090;9.754;2022-11-20T02:53:27;4.90;99.90
22966;DHT22;11649;48.090;9.754;2022-11-20T02:55:54;4.90;99.90
22966;DHT22;11649;48.090;9.754;2022-11-20T02:58:21;4.90;99.90
22966;DHT22;11649;48.090;9.754;2022-11-20T03:00:48;4.80;99.90
22966;DHT22;11649;48.090;9.754;2022-11-20T03:03:14;4.80;99.90
22966;DHT22;11649;48.090;9.754;2022-11-20T03:05:41;4.80;99.90
22966;DHT22;11649;48.090;9.754;2022-11-20T03:08:08;4.80;99.90
22966;DHT22;11649;48.090;9.754;2022-11-20T03:10:34;4.90;99.90
22966;DHT22;11649;48.090;9.754;2022-11-20T03:13:01;4.90;99.90
22966;DHT22;11649;48.090;9.754;2022-11-20T03:15:28;5.00;99.90
22966;DHT22;11649;48.090;9.754;2022-11-20T03:17:55;5.00;99.90
22966;DHT22;11649;48.090;9.754;2022-11-20T03:20:22;5.00;99.90
22966;DHT22;11649;48.090;9.754;2022-11-20T03:22:49;5.00;99.90
22966;DHT22;11649;48.090;9.754;2022-11-20T03:25:16;5.00;99.90
22966;DHT22;11649;48.090;9.754;2022-11-20T03:27:43;5.00;99.90
22966;DHT22;11649;48.090;9.754;2022-11-20T03:30:10;5.00;99.90
22966;DHT22;11649;48.090;9.754;2022-11-20T03:32:36;5.00;99.90
22966;DHT22;11649;48.090;9.754;2022-11-20T03:35:03;5.00;99.90
22966;DHT22;11649;48.090;9.754;2022-11-20T03:37:31;5.00;99.90
22966;DHT22;11649;48.090;9.754;2022-11-20T03:39:58;5.00;99.90
22966;DHT22;11649;48.090;9.754;2022-11-20T03:42:24;5.00;99.90
22966;DHT22;11649;48.090;9.754;2022-11-20T03:45:10;5.10;99.90
22966;DHT22;11649;48.090;9.754;2022-11-20T03:47:36;5.10;99.90
22966;DHT22;11649;48.090;9.754;2022-11-20T03:50:03;5.10;99.90
22966;DHT22;11649;48.090;9.754;2022-11-20T03:52:30;5.10;99.90
22966;DHT22;11649;48.090;9.754;2022-11-20T03:54:57;5.10;99.90
22966;DHT22;11649;48.090;9.754;2022-11-20T03:57:24;5.10;99.90
22966;DHT22;11649;48.090;9.754;2022-11-20T03:59:51;5.10;99.90
22966;DHT22;11649;48.090;9.754;2022-11-20T04:02:17;5.20;99.90
22966;DHT22;11649;48.090;9.754;2022-11-20T04:04:44;5.10;99.90
22966;DHT22;11649;48.090;9.754;2022-11-20T04:07:11;5.10;99.90
22966;DHT22;11649;48.090;9.754;2022-11-20T04:09:37;5.10;99.90
22966;DHT22;11649;48.090;9.754;2022-11-20T04:12:04;5.00;99.90
22966;DHT22;11649;48.090;9.754;2022-11-20T04:14:31;5.10;99.90
22966;DHT22;11649;48.090;9.754;2022-11-20T04:16:58;5.10;99.90
22966;DHT22;11649;48.090;9.754;2022-11-20T04:19:24;4.90;99.90
22966;DHT22;11649;48.090;9.754;2022-11-20T04:21:51;5.00;99.90
22966;DHT22;11649;48.090;9.754;2022-11-20T04:24:18;5.00;99.90
22966;DHT22;11649;48.090;9.754;2022-11-20T04:26:44;5.00;99.90
22966;DHT22;11649;48.090;9.754;2022-11-20T04:29:11;5.00;99.90
22966;DHT22;11649;48.090;9.754;2022-11-20T04:31:38;5.00;99.90
22966;DHT22;11649;48.090;9.754;2022-11-20T04:34:06;5.00;99.90
22966;DHT22;11649;48.090;9.754;2022-11-20T04:36:34;5.00;99.90
22966;DHT22;11649;48.090;9.754;2022-11-20T04:39:03;5.00;99.90
22966;DHT22;11649;48.090;9.754;2022-11-20T04:41:35;4.90;99.90
22966;DHT22;11649;48.090;9.754;2022-11-20T04:44:04;4.80;99.90
22966;DHT22;11649;48.090;9.754;2022-11-20T04:46:34;4.80;99.90
22966;DHT22;11649;48.090;9.754;2022-11-20T04:49:01;4.90;99.90
22966;DHT22;11649;48.090;9.754;2022-11-20T04:51:27;4.70;99.90
22966;DHT22;11649;48.090;9.754;2022-11-20T04:53:54;4.70;99.90
22966;DHT22;11649;48.090;9.754;2022-11-20T04:56:21;4.70;99.90
22966;DHT22;11649;48.090;9.754;2022-11-20T04:58:48;4.60;99.90
22966;DHT22;11649;48.090;9.754;2022-11-20T05:01:18;4.60;99.90
22966;DHT22;11649;48.090;9.754;2022-11-20T05:03:45;4.70;99.90
22966;DHT22;11649;48.090;9.754;2022-11-20T05:06:14;4.60;99.90
22966;DHT22;11649;48.090;9.754;2022-11-20T05:08:41;4.60;99.90
22966;DHT22;11649;48.090;9.754;2022-11-20T05:11:14;4.60;99.90
22966;DHT22;11649;48.090;9.754;2022-11-20T05:13:41;4.60;99.90
22966;DHT22;11649;48.090;9.754;2022-11-20T05:16:11;4.60;99.90
22966;DHT22;11649;48.090;9.754;2022-11-20T05:18:39;4.70;99.90
22966;DHT22;11649;48.090;9.754;2022-11-20T05:21:07;4.70;99.90
22966;DHT22;11649;48.090;9.754;2022-11-20T05:23:35;4.70;99.90
22966;DHT22;11649;48.090;9.754;2022-11-20T05:26:03;4.70;99.90
22966;DHT22;11649;48.090;9.754;2022-11-20T05:28:30;5.10;99.90
22966;DHT22;11649;48.090;9.754;2022-11-20T05:31:08;4.80;99.90
22966;DHT22;11649;48.090;9.754;2022-11-20T05:33:35;4.80;99.90
22966;DHT22;11649;48.090;9.754;2022-11-20T05:36:04;4.80;99.90
22966;DHT22;11649;48.090;9.754;2022-11-20T05:38:31;4.80;99.90
22966;DHT22;11649;48.090;9.754;2022-11-20T05:41:11;4.70;99.90
22966;DHT22;11649;48.090;9.754;2022-11-20T05:43:40;4.80;99.90
22966;DHT22;11649;48.090;9.754;2022-11-20T05:46:09;4.80;99.90
22966;DHT22;11649;48.090;9.754;2022-11-20T05:48:37;4.80;99.90
22966;DHT22;11649;48.090;9.754;2022-11-20T05:51:07;4.80;99.90
22966;DHT22;11649;48.090;9.754;2022-11-20T05:53:35;4.70;99.90
22966;DHT22;11649;48.090;9.754;2022-11-20T05:56:08;4.80;99.90
22966;DHT22;11649;48.090;9.754;2022-11-20T05:58:37;4.80;99.90
22966;DHT22;11649;48.090;9.754;2022-11-20T06:01:18;4.80;99.90
22966;DHT22;11649;48.090;9.754;2022-11-20T06:03:45;4.70;99.90
22966;DHT22;11649;48.090;9.754;2022-11-20T06:06:15;4.80;99.90
22966;DHT22;11649;48.090;9.754;2022-11-20T06:08:43;4.90;99.90
22966;DHT22;11649;48.090;9.754;2022-11-20T06:11:11;4.80;99.90
22966;DHT22;11649;48.090;9.754;2022-11-20T06:13:39;4.70;99.90
22966;DHT22;11649;48.090;9.754;2022-11-20T06:16:09;4.60;99.90
22966;DHT22;11649;48.090;9.754;2022-11-20T06:18:36;4.60;99.90
22966;DHT22;11649;48.090;9.754;2022-11-20T06:21:14;4.60;99.90
22966;DHT22;11649;48.090;9.754;2022-11-20T06:23:42;4.60;99.90
22966;DHT22;11649;48.090;9.754;2022-11-20T06:26:14;4.20;99.90
22966;DHT22;11649;48.090;9.754;2022-11-20T06:28:41;4.30;99.90
22966;DHT22;11649;48.090;9.754;2022-11-20T06:31:11;4.40;99.90
22966;DHT22;11649;48.090;9.754;2022-11-20T06:33:38;4.50;99.90
22966;DHT22;11649;48.090;9.754;2022-11-20T06:36:05;4.50;99.90
22966;DHT22;11649;48.090;9.754;2022-11-20T06:38:36;4.70;99.90
22966;DHT22;11649;48.090;9.754;2022-11-20T06:41:05;4.70;99.90
22966;DHT22;11649;48.090;9.754;2022-11-20T06:43:32;4.80;99.90
22966;DHT22;11649;48.090;9.754;2022-11-20T06:45:59;4.80;99.90
22966;DHT22;11649;48.090;9.754;2022-11-20T06:48:28;4.80;99.90
22966;DHT22;11649;48.090;9.754;2022-11-20T06:50:56;4.90;99.90
22966;DHT22;11649;48.090;9.754;2022-11-20T06:53:24;4.80;99.90
22966;DHT22;11649;48.090;9.754;2022-11-20T06:55:51;4.90;99.90
22966;DHT22;11649;48.090;9.754;2022-11-20T06:58:18;5.00;99.90
22966;DHT22;11649;48.090;9.754;2022-11-20T07:00:45;4.90;99.90
22966;DHT22;11649;48.090;9.754;2022-11-20T07:03:12;4.90;99.90
22966;DHT22;11649;48.090;9.754;2022-11-20T07:05:40;4.90;99.90
22966;DHT22;11649;48.090;9.754;2022-11-20T07:08:07;5.00;99.90
22966;DHT22;11649;48.090;9.754;2022-11-20T07:10:34;5.00;99.90
22966;DHT22;11649;48.090;9.754;2022-11-20T07:13:01;5.00;99.90
22966;DHT22;11649;48.090;9.754;2022-11-20T07:15:28;5.00;99.90
22966;DHT22;11649;48.090;9.754;2022-11-20T07:17:55;5.00;99.90
22966;DHT22;11649;48.090;9.754;2022-11-20T07:20:24;5.00;99.90
22966;DHT22;11649;48.090;9.754;2022-11-20T07:22:55;5.00;99.90
22966;DHT22;11649;48.090;9.754;2022-11-20T07:25:26;5.00;99.90
22966;DHT22;11649;48.090;9.754;2022-11-20T07:28:00;4.80;99.90
22966;DHT22;11649;48.090;9.754;2022-11-20T07:30:28;4.90;99.90
22966;DHT22;11649;48.090;9.754;2022-11-20T07:32:56;5.00;99.90
22966;DHT22;11649;48.090;9.754;2022-11-20T07:35:24;5.00;99.90
22966;DHT22;11649;48.090;9.754;2022-11-20T07:37:51;5.20;99.90
22966;DHT22;11649;48.090;9.754;2022-11-20T07:40:18;5.20;99.90
22966;DHT22;11649;48.090;9.754;2022-11-20T07:42:52;5.30;99.90
22966;DHT22;11649;48.090;9.754;2022-11-20T07:45:20;5.40;99.90
22966;DHT22;11649;48.090;9.754;2022-11-20T07:47:49;5.40;99.90
22966;DHT22;11649;48.090;9.754;2022-11-20T07:50:16;5.40;99.90
22966;DHT22;11649;48.090;9.754;2022-11-20T07:52:43;5.40;99.90
22966;DHT22;11649;48.090;9.754;2022-11-20T07:55:10;5.50;99.90
22966;DHT22;11649;48.090;9.754;2022-11-20T07:57:37;5.60;99.90
22966;DHT22;11649;48.090;9.754;2022-11-20T08:00:05;5.70;99.90
22966;DHT22;11649;48.090;9.754;2022-11-20T08:02:33;5.40;99.90
22966;DHT22;11649;48.090;9.754;2022-11-20T08:05:00;5.50;99.90
22966;DHT22;11649;48.090;9.754;2022-11-20T08:07:26;5.60;99.90
22966;DHT22;11649;48.090;9.754;2022-11-20T08:09:53;5.70;99.90
22966;DHT22;11649;48.090;9.754;2022-11-20T08:12:21;5.80;99.90
22966;DHT22;11649;48.090;9.754;2022-11-20T08:15:07;5.70;99.90
22966;DHT22;11649;48.090;9.754;2022-11-20T08:17:39;5.80;99.90
22966;DHT22;11649;48.090;9.754;2022-11-20T08:20:06;5.70;99.90
22966;DHT22;11649;48.090;9.754;2022-11-20T08:22:32;5.80;99.90
22966;DHT22;11649;48.090;9.754;2022-11-20T08:24:59;5.70;99.90
22966;DHT22;11649;48.090;9.754;2022-11-20T08:27:26;5.80;99.90
22966;DHT22;11649;48.090;9.754;2022-11-20T08:29:53;5.80;99.90
22966;DHT22;11649;48.090;9.754;2022-11-20T08:32:20;5.90;99.90
22966;DHT22;11649;48.090;9.754;2022-11-20T08:34:47;6.00;99.90
22966;DHT22;11649;48.090;9.754;2022-11-20T08:37:13;6.00;99.90
22966;DHT22;11649;48.090;9.754;2022-11-20T08:39:40;6.00;99.90
22966;DHT22;11649;48.090;9.754;2022-11-20T08:42:07;6.00;99.90
22966;DHT22;11649;48.090;9.754;2022-11-20T08:44:34;6.10;99.90
22966;DHT22;11649;48.090;9.754;2022-11-20T08:47:01;6.00;99.90
22966;DHT22;11649;48.090;9.754;2022-11-20T08:49:28;6.00;99.90
22966;DHT22;11649;48.090;9.754;2022-11-20T08:51:55;6.00;99.90
22966;DHT22;11649;48.090;9.754;2022-11-20T08:54:22;5.90;99.90
22966;DHT22;11649;48.090;9.754;2022-11-20T08:56:49;6.10;99.90
22966;DHT22;11649;48.090;9.754;2022-11-20T08:59:15;6.10;99.90
22966;DHT22;11649;48.090;9.754;2022-11-20T09:02:02;6.40;99.90
22966;DHT22;11649;48.090;9.754;2022-11-20T09:04:29;6.50;99.90
22966;DHT22;11649;48.090;9.754;2022-11-20T09:06:56;6.60;99.90
22966;DHT22;11649;48.090;9.754;2022-11-20T09:09:23;7.00;99.90
22966;DHT22;11649;48.090;9.754;2022-11-20T09:11:51;7.50;99.90
22966;DHT22;11649;48.090;9.754;2022-11-20T09:14:17;7.60;99.90
22966;DHT22;11649;48.090;9.754;2022-11-20T09:16:45;7.50;99.90
22966;DHT22;11649;48.090;9.754;2022-11-20T09:19:13;7.30;99.90
22966;DHT22;11649;48.090;9.754;2022-11-20T09:21:59;7.20;99.90
22966;DHT22;11649;48.090;9.754;2022-11-20T09:24:27;7.40;99.90
22966;DHT22;11649;48.090;9.754;2022-11-20T09:26:54;7.40;99.90
22966;DHT22;11649;48.090;9.754;2022-11-20T09:29:21;7.30;99.90
22966;DHT22;11649;48.090;9.754;2022-11-20T09:31:48;7.20;99.90
22966;DHT22;11649;48.090;9.754;2022-11-20T09:34:15;7.10;99.90
22966;DHT22;11649;48.090;9.754;2022-11-20T09:36:42;6.90;99.90
22966;DHT22;11649;48.090;9.754;2022-11-20T09:39:09;6.90;99.90
22966;DHT22;11649;48.090;9.754;2022-11-20T09:42:01;7.90;99.90
22966;DHT22;11649;48.090;9.754;2022-11-20T09:44:34;6.90;99.90
22966;DHT22;11649;48.090;9.754;2022-11-20T09:51:12;7.00;99.90
22966;DHT22;11649;48.090;9.754;2022-11-20T09:53:30;6.90;99.90
22966;DHT22;11649;48.090;9.754;2022-11-20T09:56:03;6.90;99.90
22966;DHT22;11649;48.090;9.754;2022-11-20T09:58:39;6.80;99.90
22966;DHT22;11649;48.090;9.754;2022-11-20T10:03:57;6.80;99.90
22966;DHT22;11649;48.090;9.754;2022-11-20T10:06:44;6.70;99.90
22966;DHT22;11649;48.090;9.754;2022-11-20T10:09:36;6.70;99.90
22966;DHT22;11649;48.090;9.754;2022-11-20T10:12:27;6.70;99.90
22966;DHT22;11649;48.090;9.754;2022-11-20T10:18:03;6.70;99.90
22966;DHT22;11649;48.090;9.754;2022-11-20T10:21:08;6.70;99.90
22966;DHT22;11649;48.090;9.754;2022-11-20T10:31:37;6.70;99.90
22966;DHT22;11649;48.090;9.754;2022-11-20T10:34:16;6.70;99.90
22966;DHT22;11649;48.090;9.754;2022-11-20T10:37:24;6.70;99.90
22966;DHT22;11649;48.090;9.754;2022-11-20T10:42:49;6.60;99.90
22966;DHT22;11649;48.090;9.754;2022-11-20T10:48:20;6.60;99.90
22966;DHT22;11649;48.090;9.754;2022-11-20T10:51:02;6.60;99.90
22966;DHT22;11649;48.090;9.754;2022-11-20T10:54:00;6.50;99.90
22966;DHT22;11649;48.090;9.754;2022-11-20T10:56:45;6.60;99.90
22966;DHT22;11649;48.090;9.754;2022-11-20T11:02:21;6.50;99.90
22966;DHT22;11649;48.090;9.754;2022-11-20T11:04:52;6.60;99.90
22966;DHT22;11649;48.090;9.754;2022-11-20T11:07:21;6.60;99.90
22966;DHT22;11649;48.090;9.754;2022-11-20T11:09:56;6.60;99.90
22966;DHT22;11649;48.090;9.754;2022-11-20T11:12:28;6.60;99.90
22966;DHT22;11649;48.090;9.754;2022-11-20T11:14:57;6.70;99.90
22966;DHT22;11649;48.090;9.754;2022-11-20T11:17:29;6.70;99.90
22966;DHT22;11649;48.090;9.754;2022-11-20T11:20:05;6.70;99.90
22966;DHT22;11649;48.090;9.754;2022-11-20T11:22:35;6.70;99.90
22966;DHT22;11649;48.090;9.754;2022-11-20T11:25:19;6.70;99.90
22966;DHT22;11649;48.090;9.754;2022-11-20T11:27:47;6.70;99.90
22966;DHT22;11649;48.090;9.754;2022-11-20T11:30:16;6.60;99.90
22966;DHT22;11649;48.090;9.754;2022-11-20T11:32:44;6.50;99.90
22966;DHT22;11649;48.090;9.754;2022-11-20T11:37:46;6.60;99.90
22966;DHT22;11649;48.090;9.754;2022-11-20T11:40:15;6.70;99.90
22966;DHT22;11649;48.090;9.754;2022-11-20T11:42:58;6.60;99.90
22966;DHT22;11649;48.090;9.754;2022-11-20T11:45:25;6.60;99.90
22966;DHT22;11649;48.090;9.754;2022-11-20T11:47:55;6.50;99.90
22966;DHT22;11649;48.090;9.754;2022-11-20T11:50:27;6.60;99.90
22966;DHT22;11649;48.090;9.754;2022-11-20T11:53:14;6.60;99.90
22966;DHT22;11649;48.090;9.754;2022-11-20T11:56:10;6.60;99.90
22966;DHT22;11649;48.090;9.754;2022-11-20T11:58:48;6.60;99.90
22966;DHT22;11649;48.090;9.754;2022-11-20T12:01:37;6.60;99.90
22966;DHT22;11649;48.090;9.754;2022-11-20T12:04:21;6.60;99.90
22966;DHT22;11649;48.090;9.754;2022-11-20T12:06:51;6.70;99.90
22966;DHT22;11649;48.090;9.754;2022-11-20T12:09:22;6.70;99.90
22966;DHT22;11649;48.090;9.754;2022-11-20T12:14:57;6.80;99.90
22966;DHT22;11649;48.090;9.754;2022-11-20T12:17:25;6.80;99.90
22966;DHT22;11649;48.090;9.754;2022-11-20T12:19:51;6.80;99.90
22966;DHT22;11649;48.090;9.754;2022-11-20T12:22:41;6.80;99.90
22966;DHT22;11649;48.090;9.754;2022-11-20T12:25:17;6.80;99.90
22966;DHT22;11649;48.090;9.754;2022-11-20T12:27:52;6.80;99.90
22966;DHT22;11649;48.090;9.754;2022-11-20T12:30:24;6.70;99.90
22966;DHT22;11649;48.090;9.754;2022-11-20T12:33:30;6.80;99.90
22966;DHT22;11649;48.090;9.754;2022-11-20T12:52:56;6.30;99.90
22966;DHT22;11649;48.090;9.754;2022-11-20T12:58:27;5.90;99.90
22966;DHT22;11649;48.090;9.754;2022-11-20T13:06:54;5.90;99.90
22966;DHT22;11649;48.090;9.754;2022-11-20T13:09:22;5.90;99.90
22966;DHT22;11649;48.090;9.754;2022-11-20T13:12:05;5.90;99.90
22966;DHT22;11649;48.090;9.754;2022-11-20T13:14:41;6.00;99.90
22966;DHT22;11649;48.090;9.754;2022-11-20T13:19:41;6.00;99.90
22966;DHT22;11649;48.090;9.754;2022-11-20T13:22:09;6.10;99.90
22966;DHT22;11649;48.090;9.754;2022-11-20T13:24:36;6.10;99.90
22966;DHT22;11649;48.090;9.754;2022-11-20T13:27:19;6.10;99.90
22966;DHT22;11649;48.090;9.754;2022-11-20T13:30:14;6.20;99.90
22966;DHT22;11649;48.090;9.754;2022-11-20T13:32:54;6.40;99.90
22966;DHT22;11649;48.090;9.754;2022-11-20T13:35:31;6.50;99.90
22966;DHT22;11649;48.090;9.754;2022-11-20T13:38:06;6.70;99.90
22966;DHT22;11649;48.090;9.754;2022-11-20T13:40:55;6.70;99.90
22966;DHT22;11649;48.090;9.754;2022-11-20T13:43:26;6.80;99.90
22966;DHT22;11649;48.090;9.754;2022-11-20T13:46:02;6.90;99.90
22966;DHT22;11649;48.090;9.754;2022-11-20T13:48:32;6.80;99.90
22966;DHT22;11649;48.090;9.754;2022-11-20T13:51:20;6.80;99.90
22966;DHT22;11649;48.090;9.754;2022-11-20T13:59:08;7.00;99.90
22966;DHT22;11649;48.090;9.754;2022-11-20T14:01:43;7.00;99.90
22966;DHT22;11649;48.090;9.754;2022-11-20T14:04:19;7.00;99.90
22966;DHT22;11649;48.090;9.754;2022-11-20T14:06:48;7.10;99.90
22966;DHT22;11649;48.090;9.754;2022-11-20T14:09:51;7.00;99.90
22966;DHT22;11649;48.090;9.754;2022-11-20T14:12:21;7.00;99.90
22966;DHT22;11649;48.090;9.754;2022-11-20T14:14:51;7.00;99.90
22966;DHT22;11649;48.090;9.754;2022-11-20T14:17:29;7.00;99.90
22966;DHT22;11649;48.090;9.754;2022-11-20T14:20:13;7.00;99.90
22966;DHT22;11649;48.090;9.754;2022-11-20T14:22:48;7.50;99.90
22966;DHT22;11649;48.090;9.754;2022-11-20T14:27:51;7.90;99.90
22966;DHT22;11649;48.090;9.754;2022-11-20T14:30:26;7.90;99.90
22966;DHT22;11649;48.090;9.754;2022-11-20T14:32:56;7.70;99.90
22966;DHT22;11649;48.090;9.754;2022-11-20T14:35:29;7.50;99.90
22966;DHT22;11649;48.090;9.754;2022-11-20T14:37:56;7.50;99.90
22966;DHT22;11649;48.090;9.754;2022-11-20T14:40:33;7.40;99.90
22966;DHT22;11649;48.090;9.754;2022-11-20T14:43:24;7.20;99.90
22966;DHT22;11649;48.090;9.754;2022-11-20T14:46:24;7.20;99.90
22966;DHT22;11649;48.090;9.754;2022-11-20T14:48:54;7.00;99.90
22966;DHT22;11649;48.090;9.754;2022-11-20T14:51:38;7.10;99.90
22966;DHT22;11649;48.090;9.754;2022-11-20T14:54:18;7.00;99.90
22966;DHT22;11649;48.090;9.754;2022-11-20T14:56:59;7.00;99.90
22966;DHT22;11649;48.090;9.754;2022-11-20T14:59:29;7.10;99.90
22966;DHT22;11649;48.090;9.754;2022-11-20T15:02:02;6.90;99.90
22966;DHT22;11649;48.090;9.754;2022-11-20T15:04:30;6.90;99.90
22966;DHT22;11649;48.090;9.754;2022-11-20T15:06:59;6.80;99.90
22966;DHT22;11649;48.090;9.754;2022-11-20T15:09:27;6.80;99.90
22966;DHT22;11649;48.090;9.754;2022-11-20T15:11:59;6.80;99.90
22966;DHT22;11649;48.090;9.754;2022-11-20T15:14:28;6.70;99.90
22966;DHT22;11649;48.090;9.754;2022-11-20T15:16:56;6.70;99.90
22966;DHT22;11649;48.090;9.754;2022-11-20T15:19:25;6.70;99.90
22966;DHT22;11649;48.090;9.754;2022-11-20T15:21:52;6.70;99.90
22966;DHT22;11649;48.090;9.754;2022-11-20T15:24:19;6.60;99.90
22966;DHT22;11649;48.090;9.754;2022-11-20T15:26:47;6.60;99.90
22966;DHT22;11649;48.090;9.754;2022-11-20T15:29:15;6.50;99.90
22966;DHT22;11649;48.090;9.754;2022-11-20T15:31:45;6.40;99.90
22966;DHT22;11649;48.090;9.754;2022-11-20T15:34:14;6.30;99.90
22966;DHT22;11649;48.090;9.754;2022-11-20T15:36:42;6.30;99.90
22966;DHT22;11649;48.090;9.754;2022-11-20T15:39:09;6.20;99.90
22966;DHT22;11649;48.090;9.754;2022-11-20T15:41:37;6.20;99.90
22966;DHT22;11649;48.090;9.754;2022-11-20T15:44:05;6.20;99.90
22966;DHT22;11649;48.090;9.754;2022-11-20T15:46:35;6.30;99.90
22966;DHT22;11649;48.090;9.754;2022-11-20T15:49:05;6.20;99.90
22966;DHT22;11649;48.090;9.754;2022-11-20T15:51:38;6.30;99.90
22966;DHT22;11649;48.090;9.754;2022-11-20T15:54:16;6.30;99.90
22966;DHT22;11649;48.090;9.754;2022-11-20T15:56:47;6.20;99.90
22966;DHT22;11649;48.090;9.754;2022-11-20T15:59:14;6.20;99.90
22966;DHT22;11649;48.090;9.754;2022-11-20T16:01:41;6.30;99.90
22966;DHT22;11649;48.090;9.754;2022-11-20T16:04:13;6.20;99.90
22966;DHT22;11649;48.090;9.754;2022-11-20T16:06:40;6.30;99.90
22966;DHT22;11649;48.090;9.754;2022-11-20T16:09:08;6.20;99.90
22966;DHT22;11649;48.090;9.754;2022-11-20T16:11:35;6.20;99.90
22966;DHT22;11649;48.090;9.754;2022-11-20T16:14:06;6.20;99.90
22966;DHT22;11649;48.090;9.754;2022-11-20T16:16:51;6.20;99.90
22966;DHT22;11649;48.090;9.754;2022-11-20T16:19:18;6.20;99.90
22966;DHT22;11649;48.090;9.754;2022-11-20T16:21:45;6.10;99.90
22966;DHT22;11649;48.090;9.754;2022-11-20T16:24:13;6.10;99.90
22966;DHT22;11649;48.090;9.754;2022-11-20T16:26:41;6.20;99.90
22966;DHT22;11649;48.090;9.754;2022-11-20T16:29:08;6.20;99.90
22966;DHT22;11649;48.090;9.754;2022-11-20T16:31:36;6.10;99.90
22966;DHT22;11649;48.090;9.754;2022-11-20T16:34:05;6.10;99.90
22966;DHT22;11649;48.090;9.754;2022-11-20T16:36:42;6.10;99.90
22966;DHT22;11649;48.090;9.754;2022-11-20T16:39:10;6.10;99.90
22966;DHT22;11649;48.090;9.754;2022-11-20T16:41:37;6.00;99.90
22966;DHT22;11649;48.090;9.754;2022-11-20T16:44:09;6.00;99.90
22966;DHT22;11649;48.090;9.754;2022-11-20T16:46:37;5.90;99.90
22966;DHT22;11649;48.090;9.754;2022-11-20T16:49:12;5.80;99.90
22966;DHT22;11649;48.090;9.754;2022-11-20T16:51:39;5.80;99.90
22966;DHT22;11649;48.090;9.754;2022-11-20T16:54:07;5.80;99.90
22966;DHT22;11649;48.090;9.754;2022-11-20T16:56:35;5.90;99.90
22966;DHT22;11649;48.090;9.754;2022-11-20T16:59:02;5.80;99.90
22966;DHT22;11649;48.090;9.754;2022-11-20T17:01:30;5.60;99.90
22966;DHT22;11649;48.090;9.754;2022-11-20T17:03:59;5.70;99.90
22966;DHT22;11649;48.090;9.754;2022-11-20T17:06:31;5.70;99.90
22966;DHT22;11649;48.090;9.754;2022-11-20T17:08:58;5.70;99.90
22966;DHT22;11649;48.090;9.754;2022-11-20T17:11:26;5.80;99.90
22966;DHT22;11649;48.090;9.754;2022-11-20T17:13:57;5.80;99.90
22966;DHT22;11649;48.090;9.754;2022-11-20T17:16:29;5.70;99.90
22966;DHT22;11649;48.090;9.754;2022-11-20T17:18:57;5.60;99.90
22966;DHT22;11649;48.090;9.754;2022-11-20T17:21:29;5.60;99.90